Time;durP1;ratioP1;P1;durP2;ratioP2;P2;SDS_P1;SDS_P2;PMS_P1;PMS_P2;Temp;Humidity;BMP_temperature;BMP_pressure;BME280_temperature;BME280_humidity;BME280_pressure;Samples;Min_cycle;Max_cycle;Signal;HPM_P1;HPM_P2
2023/06/07 00:01:08;;;;;;;6.43;3.85;;;10.40;99.90;;;9.24;77.66;101592.28;4951214;28;20030;-78
2023/06/07 00:03:36;;;;;;;4.03;3.50;;;10.40;99.90;;;9.23;77.96;101590.53;4967366;28;20112;-78
2023/06/07 00:06:03;;;;;;;5.10;2.65;;;10.40;99.90;;;9.20;77.98;101590.66;4974890;28;20042;-78
2023/06/07 00:08:29;;;;;;;5.13;2.80;;;10.40;99.90;;;9.19;78.46;101588.91;4982337;28;20192;-78
2023/06/07 00:10:58;;;;;;;8.65;4.00;;;10.40;99.90;;;9.21;78.64;101592.34;4964322;28;20030;-77
2023/06/07 00:13:24;;;;;;;5.30;3.63;;;10.40;99.90;;;9.21;79.60;101586.25;4958207;28;20050;-78
2023/06/07 00:15:50;;;;;;;6.05;4.07;;;10.40;99.90;;;9.18;79.73;101586.34;4965772;28;20039;-78
2023/06/07 00:18:19;;;;;;;8.55;4.85;;;10.30;99.90;;;9.16;79.23;101583.75;4947240;28;20046;-77
2023/06/07 00:20:46;;;;;;;8.82;5.93;;;10.30;99.90;;;9.15;79.83;101575.88;4975363;28;20049;-78
2023/06/07 00:23:16;;;;;;;14.15;7.05;;;10.30;99.90;;;9.21;82.29;101587.09;4965754;28;20393;-77
2023/06/07 00:25:42;;;;;;;19.58;7.35;;;10.40;99.90;;;9.27;84.89;101590.47;4956201;28;20703;-78
2023/06/07 00:28:08;;;;;;;10.52;7.07;;;10.40;99.90;;;9.32;88.50;101593.84;4949646;28;20061;-78
2023/06/07 00:30:34;;;;;;;9.52;6.53;;;10.50;99.90;;;9.41;89.99;101599.69;4951121;28;20058;-77
2023/06/07 00:33:00;;;;;;;11.25;7.97;;;10.50;99.90;;;9.45;91.78;101596.06;4974639;28;20030;-78
2023/06/07 00:35:25;;;;;;;12.20;8.40;;;10.60;99.90;;;9.51;92.58;101594.19;4973717;28;20038;-78
2023/06/07 00:37:51;;;;;;;16.10;9.25;;;10.70;99.90;;;9.58;94.20;101591.31;4953652;28;20069;-78
2023/06/07 00:40:17;;;;;;;15.90;9.60;;;10.70;99.90;;;9.65;95.52;101597.25;4962016;28;20089;-79
2023/06/07 00:42:43;;;;;;;16.33;9.93;;;10.80;99.90;;;9.67;96.63;101594.59;4949391;28;20043;-78
2023/06/07 00:45:09;;;;;;;;;;;10.80;99.90;;;9.66;98.01;101599.00;4968731;28;20535;-78
2023/06/07 00:47:38;;;;;;;14.30;8.30;;;10.80;99.90;;;9.61;97.90;101596.50;4976766;28;20020;-79
2023/06/07 00:50:05;;;;;;;12.43;8.52;;;10.80;99.90;;;9.58;96.77;101593.09;4963696;28;20092;-78
2023/06/07 00:52:33;;;;;;;13.50;7.00;;;10.70;99.90;;;9.51;94.64;101591.56;4984971;28;20406;-79
2023/06/07 00:55:01;;;;;;;11.85;8.15;;;10.70;99.90;;;9.39;92.84;101595.38;4956270;28;20057;-79
2023/06/07 00:57:33;;;;;;;11.95;7.10;;;10.50;99.90;;;9.16;89.83;101589.00;4989938;28;20050;-77
2023/06/07 01:00:01;;;;;;;9.63;7.22;;;10.30;99.90;;;8.93;87.84;101586.13;4954766;28;20038;-77
2023/06/07 01:02:29;;;;;;;10.93;7.00;;;10.20;99.90;;;8.79;85.68;101587.34;4961552;28;20739;-78
2023/06/07 01:04:57;;;;;;;18.45;8.60;;;10.00;99.90;;;8.73;85.67;101584.00;4961531;28;20058;-79
2023/06/07 01:07:24;;;;;;;19.50;9.65;;;10.00;99.90;;;8.74;87.06;101586.56;4974582;28;20466;-78
2023/06/07 01:09:53;;;;;;;19.80;7.85;;;9.90;99.90;;;8.71;88.04;101580.56;4967352;28;20037;-78
2023/06/07 01:12:22;;;;;;;18.58;9.00;;;9.80;99.90;;;8.58;87.80;101580.84;4975148;28;20043;-77
2023/06/07 01:14:49;;;;;;;17.02;9.63;;;9.70;99.90;;;8.47;87.92;101577.63;4977353;28;20038;-78
2023/06/07 01:17:24;;;;;;;18.05;8.85;;;9.60;99.90;;;8.33;89.44;101566.56;4975626;28;20039;-77
2023/06/07 01:19:53;;;;;;;16.00;8.38;;;9.60;99.90;;;8.28;90.38;101577.16;4970948;28;20034;-78
2023/06/07 01:22:24;;;;;;;21.42;8.98;;;9.50;99.90;;;8.24;90.54;101572.88;4970171;28;20060;-78
2023/06/07 01:24:54;;;;;;;25.35;12.13;;;9.50;99.90;;;8.28;91.32;101563.19;4940250;28;20058;-78
2023/06/07 01:27:21;;;;;;;15.88;10.60;;;9.50;99.90;;;8.31;92.06;101560.47;4962510;28;20054;-79
2023/06/07 01:29:50;;;;;;;21.42;11.80;;;9.60;99.90;;;8.35;93.44;101570.88;4966795;28;20038;-78
2023/06/07 01:32:17;;;;;;;24.00;11.75;;;9.60;99.90;;;8.41;95.00;101568.13;4966877;28;20418;-77
2023/06/07 01:34:46;;;;;;;26.15;13.18;;;9.60;99.90;;;8.46;96.48;101575.88;4947415;28;20033;-78
2023/06/07 01:37:12;;;;;;;25.05;13.05;;;9.70;99.90;;;8.51;97.08;101581.03;4965815;28;20054;-78
2023/06/07 01:39:41;;;;;;;42.53;16.50;;;9.70;99.90;;;8.57;97.53;101573.00;4969636;28;20095;-78
2023/06/07 01:42:09;;;;;;;21.98;12.32;;;9.70;99.90;;;8.58;98.44;101577.38;4984856;23;20034;-71
2023/06/07 01:44:40;;;;;;;19.25;10.88;;;9.70;99.90;;;8.57;98.13;101576.50;4990926;28;20038;-70
2023/06/07 01:47:07;;;;;;;28.88;14.65;;;9.80;99.90;;;8.56;97.93;101569.53;5005521;28;20041;-70
2023/06/07 01:49:33;;;;;;;85.80;19.38;;;9.70;99.90;;;8.58;98.12;101570.34;5006010;28;20033;-70
2023/06/07 01:51:59;;;;;;;60.40;16.08;;;9.80;99.90;;;8.60;98.46;101568.56;4998516;28;20555;-70
2023/06/07 01:54:25;;;;;;;33.13;15.18;;;9.80;99.90;;;8.61;98.90;101562.38;5006969;28;20041;-70
2023/06/07 01:57:00;;;;;;;43.50;16.92;;;9.80;99.90;;;8.61;100.00;101565.00;5004891;28;20522;-70
2023/06/07 01:59:57;;;;;;;70.35;18.45;;;9.80;99.90;;;8.60;100.00;101575.56;5005401;28;20030;-70
2023/06/07 02:02:57;;;;;;;36.95;15.38;;;9.70;99.90;;;8.55;100.00;101566.94;5007193;28;20053;-69
2023/06/07 02:05:39;;;;;;;33.67;15.35;;;9.80;99.90;;;8.49;99.55;101567.97;5033219;28;20034;-69
2023/06/07 02:08:37;;;;;;;32.10;17.30;;;9.70;99.90;;;8.40;98.92;101566.41;5003579;28;20038;-69
2023/06/07 02:11:04;;;;;;;39.13;15.82;;;9.60;99.90;;;8.32;99.02;101568.31;5026059;28;20037;-70
2023/06/07 02:13:35;;;;;;;41.22;18.88;;;9.50;99.90;;;8.31;98.74;101563.97;5007020;28;20777;-70
2023/06/07 02:16:04;;;;;;;52.75;22.42;;;9.60;99.90;;;8.35;100.00;101568.25;5008729;28;20031;-70
2023/06/07 02:18:32;;;;;;;57.30;20.45;;;9.60;99.90;;;8.41;100.00;101583.03;5006963;28;20481;-70
2023/06/07 02:20:58;;;;;;;300.98;24.23;;;9.60;99.90;;;8.46;100.00;101573.25;5001264;28;20053;-69
2023/06/07 02:23:24;;;;;;;38.88;18.33;;;9.60;99.90;;;8.48;100.00;101574.09;5006790;28;20041;-69
2023/06/07 02:25:50;;;;;;;27.92;16.52;;;9.70;99.90;;;8.49;100.00;101578.47;5005685;28;20042;-70
2023/06/07 02:28:16;;;;;;;25.73;13.75;;;9.70;99.90;;;8.52;100.00;101581.00;5009510;28;20049;-69
2023/06/07 02:30:42;;;;;;;;;;;9.70;99.90;;;8.52;100.00;101573.13;4996329;28;20053;-69
2023/06/07 02:33:13;;;;;;;23.63;11.73;;;9.70;99.90;;;8.51;100.00;101574.03;5011972;28;19944;-69
2023/06/07 02:35:45;;;;;;;25.92;13.27;;;9.70;99.90;;;8.53;100.00;101571.34;5009730;28;20088;-71
2023/06/07 02:38:11;;;;;;;20.05;11.48;;;9.70;99.90;;;8.53;100.00;101567.00;5008860;28;20033;-69
2023/06/07 02:40:37;;;;;;;14.57;8.98;;;9.70;99.90;;;8.51;100.00;101573.16;4992340;28;20656;-70
2023/06/07 02:43:03;;;;;;;14.93;8.18;;;9.60;99.90;;;8.47;99.34;101576.78;4987727;28;20101;-69
2023/06/07 02:45:28;;;;;;;17.95;10.13;;;9.60;99.90;;;8.44;98.23;101571.59;5007514;28;20116;-69
2023/06/07 02:47:54;;;;;;;10.38;6.35;;;9.60;99.90;;;8.38;97.24;101570.81;5006370;28;20102;-70
2023/06/07 02:50:25;;;;;;;10.55;6.80;;;9.50;99.90;;;8.32;96.14;101567.47;5008750;28;21649;-69
2023/06/07 02:52:52;;;;;;;19.83;11.38;;;9.50;99.90;;;8.28;95.59;101565.81;4988451;28;20522;-69
2023/06/07 02:55:18;;;;;;;16.83;10.77;;;9.40;99.90;;;8.25;95.92;101560.63;5006255;28;20053;-69
2023/06/07 02:57:43;;;;;;;21.67;11.77;;;9.40;99.90;;;8.24;95.82;101561.53;5028310;28;20116;-71
2023/06/07 03:00:10;;;;;;;12.43;8.50;;;9.40;99.90;;;8.18;94.80;101570.41;5005436;28;20584;-70
2023/06/07 03:02:37;;;;;;;19.17;9.80;;;9.30;99.90;;;8.05;93.98;101561.09;5007814;28;20029;-70
2023/06/07 03:05:05;;;;;;;28.27;13.77;;;9.10;99.90;;;7.90;92.70;101563.16;5009130;28;20042;-69
2023/06/07 03:07:35;;;;;;;24.73;12.30;;;9.10;99.90;;;7.80;92.01;101559.88;4998086;28;20029;-70
2023/06/07 03:10:02;;;;;;;25.95;12.05;;;9.00;99.90;;;7.73;91.96;101557.41;5006075;28;20030;-69
2023/06/07 03:12:28;;;;;;;19.45;11.15;;;8.90;99.90;;;7.70;92.05;101560.13;5003314;28;20030;-70
2023/06/07 03:14:54;;;;;;;34.38;14.93;;;8.90;99.90;;;7.73;92.14;101560.03;5007861;28;20072;-69
2023/06/07 03:17:20;;;;;;;21.63;11.90;;;8.90;99.90;;;7.80;93.17;101564.28;5006791;28;20502;-68
2023/06/07 03:19:46;;;;;;;23.85;12.55;;;9.00;99.90;;;7.84;93.91;101559.81;4994905;28;20052;-69
2023/06/07 03:22:12;;;;;;;24.02;12.15;;;9.00;99.90;;;7.88;94.48;101564.09;5004958;28;20039;-70
2023/06/07 03:24:37;;;;;;;26.85;13.70;;;9.00;99.90;;;7.97;94.87;101561.28;5005386;28;20050;-69
2023/06/07 03:27:05;;;;;;;33.92;17.25;;;9.10;99.90;;;8.09;94.97;101566.22;5009957;28;20118;-69
2023/06/07 03:29:31;;;;;;;48.25;19.85;;;9.20;99.90;;;8.27;95.52;101579.81;5015340;28;20033;-69
2023/06/07 03:31:57;;;;;;;43.13;19.52;;;9.40;99.90;;;8.44;96.79;101579.47;4988982;28;20034;-69
2023/06/07 03:34:26;;;;;;;36.05;19.08;;;9.50;99.90;;;8.64;97.49;101585.09;5009304;28;20041;-69
2023/06/07 03:36:51;;;;;;;28.38;15.38;;;9.80;99.90;;;8.87;98.26;101586.28;5024224;28;20091;-69
2023/06/07 03:39:17;;;;;;;21.88;11.73;;;10.30;99.90;;;9.43;98.08;101589.97;4996747;28;20029;-69
2023/06/07 03:41:43;;;;;;;13.27;7.97;;;11.90;99.90;;;10.96;95.05;101599.31;5002728;28;20035;-68
2023/06/07 03:44:09;;;;;;;12.48;8.18;;;13.30;99.90;;;12.46;87.91;101606.09;5012589;28;20061;-69
2023/06/07 03:46:35;;;;;;;10.18;7.57;;;14.60;99.90;;;13.94;80.37;101607.63;5008225;28;20103;-69
2023/06/07 03:49:00;;;;;;;;;;;14.70;99.90;;;15.50;74.66;101616.69;4996237;28;20053;-69
2023/06/07 03:51:27;;;;;;;12.68;7.78;;;17.10;99.90;;;16.78;68.85;101621.09;4990338;28;19927;-69
2023/06/07 03:53:53;;;;;;;11.05;7.28;;;18.20;99.90;;;17.83;64.75;101624.53;5031601;28;20041;-70
2023/06/07 03:56:18;;;;;;;9.15;7.07;;;19.10;99.90;;;18.76;61.17;101626.59;5011351;28;20053;-70
2023/06/07 03:58:46;;;;;;;;;;;19.20;99.90;;;19.75;59.03;101624.25;5009564;28;20026;-70
2023/06/07 04:01:12;;;;;;;10.13;6.47;;;20.80;99.90;;;20.63;56.15;101623.25;5011701;28;19949;-69
2023/06/07 04:03:37;;;;;;;9.70;6.63;;;21.60;99.90;;;21.37;54.47;101633.69;5011218;28;20048;-70
2023/06/07 04:06:03;;;;;;;;;;;21.60;99.90;;;22.16;52.81;101641.72;5025788;28;20120;-69
2023/06/07 04:08:29;;;;;;;8.23;5.60;;;22.90;97.70;;;22.75;51.25;101645.88;4993908;28;19928;-70
2023/06/07 04:10:55;;;;;;;;;;;22.80;97.70;;;23.31;49.67;101659.03;5012187;28;22809;-70
2023/06/07 04:13:21;;;;;;;9.05;5.32;;;23.80;95.30;;;23.78;48.53;101661.28;5008014;28;19917;-70
2023/06/07 04:15:46;;;;;;;;;;;23.80;95.80;;;24.50;47.97;101669.19;5012639;28;20540;-70
2023/06/07 04:18:12;;;;;;;7.90;5.30;;;24.80;94.60;;;25.10;47.16;101677.13;5010084;28;19928;-70
2023/06/07 04:20:40;;;;;;;;;;;24.80;94.90;;;25.89;45.99;101689.47;5014607;28;20039;-69
2023/06/07 04:23:06;;;;;;;10.77;5.28;;;25.90;94.00;;;26.47;44.68;101693.69;5030427;28;20307;-70
2023/06/07 04:25:33;;;;;;;;;;;25.90;94.00;;;27.38;43.92;101706.22;5016939;28;20042;-70
2023/06/07 04:28:00;;;;;;;8.57;4.75;;;27.00;92.60;;;27.95;42.16;101709.31;5014270;28;19921;-69
2023/06/07 04:30:34;;;;;;;6.38;5.20;;;27.50;92.10;;;28.52;41.65;101719.53;5014825;28;20163;-69
2023/06/07 04:33:08;;;;;;;6.85;5.00;;;28.10;91.70;;;29.26;40.60;101726.94;5035654;28;20034;-71
2023/06/07 04:35:38;;;;;;;5.80;4.60;;;28.70;91.10;;;29.99;39.55;101734.94;5013453;28;20053;-70
2023/06/07 04:38:04;;;;;;;9.38;4.80;;;29.30;90.70;;;30.61;38.34;101736.06;5015263;28;20070;-70
2023/06/07 04:40:30;;;;;;;;;;;29.30;90.40;;;31.42;37.35;101748.22;5017734;28;20141;-70
2023/06/07 04:43:05;;;;;;;10.50;4.53;;;30.00;86.30;;;31.46;36.67;101735.09;5013609;28;20011;-70
2023/06/07 04:45:32;;;;;;;7.32;4.60;;;30.30;84.90;;;31.61;36.28;101746.84;5015322;28;20038;-70
2023/06/07 04:47:59;;;;;;;10.68;5.22;;;30.40;83.40;;;31.48;35.88;101749.38;5035317;28;20065;-71
2023/06/07 04:50:26;;;;;;;12.02;5.30;;;30.40;81.30;;;31.35;35.84;101751.84;5007486;28;20064;-70
2023/06/07 04:53:00;;;;;;;11.95;5.20;;;30.70;84.60;;;32.22;35.13;101763.03;5015977;28;20045;-70
2023/06/07 04:55:29;;;;;;;10.18;4.70;;;31.30;82.70;;;33.19;33.90;101767.28;5011965;28;20029;-71
2023/06/07 04:57:58;;;;;;;6.43;4.40;;;31.80;81.00;;;34.02;32.63;101777.56;5038274;28;20601;-70
2023/06/07 05:00:25;;;;;;;8.00;4.40;;;32.40;79.30;;;34.62;32.26;101780.59;5038024;28;20506;-70
2023/06/07 05:02:53;;;;;;;5.80;4.13;;;32.40;77.30;;;34.23;31.90;101782.16;5015845;28;20052;-71
2023/06/07 05:05:21;;;;;;;10.32;4.70;;;32.60;75.00;;;34.55;31.26;101788.78;5014700;28;20735;-70
2023/06/07 05:07:49;;;;;;;8.82;4.82;;;32.60;74.20;;;34.12;31.14;101783.56;4995470;28;20080;-71
2023/06/07 05:10:17;;;;;;;10.60;5.22;;;32.40;74.60;;;33.94;31.46;101788.69;5014442;28;20037;-70
2023/06/07 05:12:44;;;;;;;12.55;5.43;;;32.50;75.60;;;34.40;31.34;101801.78;5029939;28;20551;-70
2023/06/07 05:15:10;;;;;;;13.05;5.60;;;32.40;74.40;;;34.05;31.47;101799.88;5014950;28;20390;-70
2023/06/07 05:17:38;;;;;;;14.40;5.50;;;32.00;73.80;;;32.84;32.95;101783.50;4996618;28;20041;-70
2023/06/07 05:20:13;;;;;;;9.65;5.75;;;31.90;75.10;;;33.05;32.60;101793.59;5012721;28;20169;-70
2023/06/07 05:22:39;;;;;;;13.03;6.17;;;32.00;76.20;;;34.04;31.94;101798.22;5035890;28;20041;-70
2023/06/07 05:25:08;;;;;;;13.00;7.20;;;32.30;75.60;;;34.49;31.18;101812.34;5038120;28;20115;-70
2023/06/07 05:27:38;;;;;;;12.63;6.22;;;32.20;75.40;;;34.14;31.46;101807.97;5013131;28;20514;-70
2023/06/07 05:30:06;;;;;;;14.27;6.20;;;32.50;76.20;;;35.17;30.91;101819.75;5015200;28;20041;-70
2023/06/07 05:32:33;;;;;;;14.10;6.22;;;32.90;75.20;;;35.49;30.34;101819.97;5037066;28;20037;-70
2023/06/07 05:34:59;;;;;;;14.77;6.93;;;33.20;76.30;;;36.16;29.61;101837.22;5027716;28;20029;-70
2023/06/07 05:37:28;;;;;;;11.77;5.97;;;33.60;75.00;;;36.07;30.01;101828.34;5005158;28;20030;-71
2023/06/07 05:39:54;;;;;;;15.07;7.03;;;33.60;75.60;;;36.13;29.64;101829.41;5013860;28;20029;-71
2023/06/07 05:42:20;;;;;;;14.27;5.90;;;33.90;73.90;;;36.45;29.02;101835.00;5036741;28;20602;-70
2023/06/07 05:44:47;;;;;;;14.80;6.10;;;33.90;74.20;;;36.12;29.95;101823.09;4996531;28;20048;-70
2023/06/07 05:47:14;;;;;;;12.50;6.45;;;34.20;73.50;;;36.60;29.69;101827.34;4995049;28;20406;-71
2023/06/07 05:49:39;;;;;;;17.33;6.57;;;34.30;73.80;;;36.70;29.45;101829.66;5016441;28;20047;-71
2023/06/07 05:52:06;;;;;;;17.23;7.28;;;34.00;74.50;;;35.49;30.64;101811.75;4996858;28;20128;-72
2023/06/07 05:54:32;;;;;;;13.23;6.38;;;34.20;74.70;;;36.13;30.31;101813.78;5029146;28;20038;-71
2023/06/07 05:56:57;;;;;;;16.52;6.90;;;34.50;74.00;;;36.71;29.54;101823.09;5011799;28;20086;-70
2023/06/07 05:59:23;;;;;;;13.70;6.35;;;34.50;74.40;;;36.09;30.31;101825.38;5015507;28;20037;-70
2023/06/07 06:01:49;;;;;;;10.82;6.00;;;34.90;72.80;;;36.93;29.11;101829.97;5018862;28;20127;-71
2023/06/07 06:04:18;;;;;;;13.57;5.38;;;34.60;73.10;;;35.30;31.00;101808.78;4997474;28;20038;-71
2023/06/07 06:06:44;;;;;;;15.90;6.13;;;34.50;73.80;;;35.52;31.25;101811.31;5027376;28;20461;-71
2023/06/07 06:09:10;;;;;;;10.02;5.95;;;34.70;74.20;;;36.19;30.90;101819.50;5012524;28;20056;-71
2023/06/07 06:11:35;;;;;;;12.73;5.85;;;35.00;72.50;;;36.29;30.30;101820.72;5013014;28;20049;-71
2023/06/07 06:14:01;;;;;;;12.85;5.90;;;34.70;71.60;;;35.26;31.16;101807.53;5036574;28;20551;-71
2023/06/07 06:16:27;;;;;;;12.77;6.47;;;34.40;73.50;;;34.89;31.68;101801.56;5013699;28;20426;-71
2023/06/07 06:18:53;;;;;;;12.10;5.85;;;34.50;73.30;;;35.38;31.28;101799.53;5011067;28;20048;-71
2023/06/07 06:21:19;;;;;;;13.57;5.50;;;34.60;71.50;;;35.47;30.40;101809.22;5011513;28;20389;-71
2023/06/07 06:23:45;;;;;;;14.23;5.13;;;33.90;69.60;;;33.57;32.14;101788.84;5016206;28;20038;-71
2023/06/07 06:26:10;;;;;;;11.63;5.20;;;33.50;70.60;;;33.00;33.14;101776.09;5011792;28;20441;-71
2023/06/07 06:28:36;;;;;;;9.02;4.50;;;33.40;70.60;;;33.35;32.32;101779.84;5014315;28;20128;-71
2023/06/07 06:31:03;;;;;;;10.25;4.68;;;33.40;72.50;;;33.94;31.75;101783.22;5014144;28;20494;-72
2023/06/07 06:33:29;;;;;;;13.05;4.55;;;33.30;71.00;;;33.44;31.65;101786.00;5035670;28;20510;-71
2023/06/07 06:35:55;;;;;;;14.85;4.95;;;33.60;72.50;;;34.17;31.78;101800.22;5013184;28;20586;-70
2023/06/07 06:38:21;;;;;;;11.90;4.60;;;34.10;70.80;;;34.64;31.01;101804.00;5013602;28;20034;-71
2023/06/07 06:40:47;;;;;;;12.13;4.60;;;34.60;70.20;;;35.69;29.75;101815.34;5022801;28;20527;-73
2023/06/07 06:43:13;;;;;;;12.80;4.50;;;34.60;68.30;;;34.84;30.93;101814.16;5011061;28;20648;-71
2023/06/07 06:45:38;;;;;;;10.20;4.47;;;34.80;68.10;;;35.31;29.48;101813.22;5015139;28;20029;-71
2023/06/07 06:48:05;;;;;;;11.32;4.75;;;34.60;67.00;;;34.47;30.14;101799.91;5013535;28;20055;-71
2023/06/07 06:50:31;;;;;;;16.60;4.60;;;35.00;68.10;;;35.54;29.14;101809.22;5009829;28;20030;-71
2023/06/07 06:52:57;;;;;;;13.52;4.60;;;34.80;68.70;;;35.15;30.10;101807.31;5035371;28;20035;-71
2023/06/07 06:55:23;;;;;;;11.38;4.18;;;34.90;67.90;;;35.11;29.79;101804.13;5034137;28;20498;-72
2023/06/07 06:57:49;;;;;;;14.35;4.78;;;34.70;67.30;;;34.04;30.41;101795.47;5012342;28;20115;-72
2023/06/07 07:00:16;;;;;;;10.85;4.47;;;34.20;68.50;;;33.46;31.29;101783.91;5011063;28;20030;-71
2023/06/07 07:02:42;;;;;;;12.90;4.63;;;34.40;68.30;;;34.31;30.40;101795.66;5010993;28;20030;-71
2023/06/07 07:05:09;;;;;;;12.82;4.35;;;34.40;69.30;;;34.38;31.06;101788.31;5012743;28;20380;-72
2023/06/07 07:07:35;;;;;;;9.82;3.88;;;34.60;68.10;;;34.46;30.60;101801.81;5014464;28;20029;-71
2023/06/07 07:10:01;;;;;;;9.27;4.13;;;34.50;66.90;;;33.97;30.65;101791.00;5011263;28;20039;-71
2023/06/07 07:12:28;;;;;;;10.68;4.60;;;34.60;67.90;;;34.63;29.48;101802.31;4994549;28;20048;-71
2023/06/07 07:14:55;;;;;;;12.48;4.43;;;34.70;66.80;;;34.58;29.93;101803.94;5031317;28;20065;-72
2023/06/07 07:17:20;;;;;;;11.98;3.72;;;34.90;67.30;;;35.24;29.50;101808.78;5028235;28;20075;-71
2023/06/07 07:19:46;;;;;;;11.95;4.00;;;35.10;64.70;;;35.51;27.91;101821.44;5004910;28;20041;-72
2023/06/07 07:22:12;;;;;;;8.95;3.85;;;35.50;64.90;;;36.07;27.53;101833.84;5012160;28;20038;-71
2023/06/07 07:24:38;;;;;;;9.07;3.80;;;35.90;64.30;;;36.47;27.00;101832.91;5033646;28;20054;-71
2023/06/07 07:27:07;;;;;;;10.85;3.55;;;35.50;61.50;;;35.10;27.54;101824.34;5035867;28;20044;-72
2023/06/07 07:29:33;;;;;;;8.30;4.20;;;35.50;64.30;;;35.26;28.09;101813.00;5009040;28;20037;-71
2023/06/07 07:31:59;;;;;;;11.95;4.03;;;35.30;62.90;;;35.08;28.06;101826.44;5011082;28;20030;-71
2023/06/07 07:34:25;;;;;;;8.98;4.45;;;35.00;64.40;;;34.39;28.86;101806.41;5012877;28;20403;-71
2023/06/07 07:36:51;;;;;;;11.23;4.45;;;35.00;63.80;;;34.80;28.26;101815.63;5032669;28;20091;-71
2023/06/07 07:39:17;;;;;;;9.18;3.92;;;35.30;63.60;;;35.65;27.43;101822.31;4993859;28;20037;-71
2023/06/07 07:41:44;;;;;;;13.18;4.00;;;35.20;63.80;;;35.29;28.07;101823.56;5017381;28;20283;-72
2023/06/07 07:44:09;;;;;;;12.55;3.65;;;34.70;63.60;;;34.10;28.99;101805.63;5033176;28;20098;-71
2023/06/07 07:46:36;;;;;;;9.82;3.65;;;33.80;63.50;;;32.49;30.97;101794.19;5035987;28;20116;-71
2023/06/07 07:49:02;;;;;;;11.05;4.40;;;33.50;65.80;;;32.71;31.07;101783.38;4985591;28;20034;-72
2023/06/07 07:51:28;;;;;;;8.50;4.00;;;33.50;66.60;;;33.20;30.83;101782.66;4992541;28;20134;-71
2023/06/07 07:53:54;;;;;;;7.13;3.95;;;33.70;65.10;;;33.73;29.51;101790.44;5015150;28;20037;-71
2023/06/07 07:56:23;;;;;;;10.40;3.63;;;33.80;66.40;;;33.75;29.50;101792.97;5018594;28;20036;-72
2023/06/07 07:58:50;;;;;;;7.90;3.80;;;33.70;65.10;;;33.42;30.11;101788.09;4998667;28;20119;-71
2023/06/07 08:01:20;;;;;;;9.20;4.20;;;33.10;64.90;;;32.14;30.72;101773.19;5022659;28;20040;-71
2023/06/07 08:03:47;;;;;;;7.45;3.90;;;33.00;66.20;;;32.69;30.72;101769.06;5010734;28;20042;-72
2023/06/07 08:06:13;;;;;;;9.30;4.30;;;32.90;66.70;;;32.63;30.71;101772.56;5015211;28;20045;-71
2023/06/07 08:08:39;;;;;;;12.15;3.75;;;32.70;67.20;;;32.15;31.18;101764.81;5018013;28;20145;-71
2023/06/07 08:11:05;;;;;;;8.32;3.72;;;32.00;69.30;;;30.80;33.29;101738.31;5040022;28;20473;-71
2023/06/07 08:13:31;;;;;;;10.13;4.25;;;31.30;68.10;;;30.32;33.79;101726.69;5014062;28;20037;-70
2023/06/07 08:15:57;;;;;;;8.77;3.95;;;31.10;69.70;;;30.56;33.38;101727.56;4996787;28;20045;-70
2023/06/07 08:18:22;;;;;;;11.38;4.10;;;30.90;70.20;;;30.51;33.52;101722.69;5019451;28;20032;-70
2023/06/07 08:20:48;;;;;;;10.25;3.97;;;30.50;69.30;;;29.65;34.23;101705.31;5016308;28;20414;-71
2023/06/07 08:23:14;;;;;;;8.15;3.83;;;30.10;72.50;;;29.32;35.41;101696.41;5010571;28;20037;-71
2023/06/07 08:25:40;;;;;;;11.07;4.18;;;29.20;71.30;;;28.04;36.44;101674.19;5026607;28;20038;-71
2023/06/07 08:28:07;;;;;;;11.57;3.75;;;28.80;73.90;;;28.11;36.73;101675.22;5020483;28;20048;-70
2023/06/07 08:30:34;;;;;;;13.38;3.92;;;28.90;73.70;;;28.60;36.02;101689.75;5000305;28;20026;-72
2023/06/07 08:32:59;;;;;;;7.15;4.03;;;29.10;72.90;;;28.93;35.61;101699.78;4994214;28;20174;-71
2023/06/07 08:35:25;;;;;;;11.18;3.53;;;29.20;72.60;;;28.68;35.77;101697.03;5017057;28;20122;-71
2023/06/07 08:37:51;;;;;;;11.60;3.90;;;29.00;73.30;;;28.20;36.66;101691.31;5015093;28;20595;-71
2023/06/07 08:40:21;;;;;;;10.25;4.38;;;28.70;72.70;;;28.04;36.85;101687.72;5018066;28;20569;-71
2023/06/07 08:42:47;;;;;;;11.55;3.85;;;28.30;74.30;;;27.33;38.33;101684.22;5031666;28;20033;-71
2023/06/07 08:45:15;;;;;;;9.63;4.30;;;28.00;73.10;;;26.98;38.30;101677.84;5016562;28;20057;-71
2023/06/07 08:47:44;;;;;;;11.50;3.97;;;27.90;75.80;;;27.34;39.04;101680.50;5004722;28;20039;-71
2023/06/07 08:50:14;;;;;;;14.23;4.07;;;27.50;74.50;;;26.50;39.22;101671.81;5036295;28;20530;-73
2023/06/07 08:52:50;;;;;;;8.45;3.97;;;27.50;74.50;;;26.70;38.85;101669.84;5014296;28;20090;-71
2023/06/07 08:55:17;;;;;;;8.98;3.50;;;27.70;76.00;;;27.12;38.85;101682.69;5012195;28;20453;-73
2023/06/07 08:57:50;;;;;;;10.55;3.55;;;27.30;76.30;;;26.47;39.38;101666.69;5016146;28;20064;-71
2023/06/07 09:00:28;;;;;;;10.68;4.07;;;27.30;77.00;;;26.55;39.54;101663.25;5006235;28;21281;-71
2023/06/07 09:02:54;;;;;;;7.68;3.25;;;27.40;78.30;;;26.87;39.46;101669.97;5008209;28;20034;-71
2023/06/07 09:05:22;;;;;;;9.73;4.00;;;27.40;76.80;;;26.70;39.81;101661.72;5015691;28;20117;-71
2023/06/07 09:07:49;;;;;;;8.00;3.55;;;27.40;77.20;;;26.72;39.37;101659.72;5032176;28;20051;-71
2023/06/07 09:10:20;;;;;;;7.70;3.70;;;27.50;76.10;;;26.91;38.90;101658.72;5013322;28;20038;-71
2023/06/07 09:12:49;;;;;;;8.88;3.53;;;27.40;76.60;;;26.64;39.35;101659.66;5017161;28;20038;-71
2023/06/07 09:15:22;;;;;;;6.70;3.60;;;27.40;76.90;;;26.57;38.73;101661.28;5034020;28;20530;-72
2023/06/07 09:18:03;;;;;;;13.73;3.92;;;27.20;77.40;;;26.27;39.72;101657.03;5013932;28;20049;-72
2023/06/07 09:20:31;;;;;;;14.80;3.80;;;27.00;78.40;;;26.26;40.37;101664.28;5007845;28;20109;-72
2023/06/07 09:23:08;;;;;;;10.43;3.75;;;27.00;79.40;;;26.18;39.90;101658.81;5034130;28;20044;-73
2023/06/07 09:25:37;;;;;;;7.95;3.95;;;26.90;77.30;;;26.39;39.60;101663.91;5011145;28;20371;-72
2023/06/07 09:28:14;;;;;;;9.25;4.35;;;27.10;77.80;;;26.46;39.18;101661.44;5011302;28;20045;-72
2023/06/07 09:31:00;;;;;;;13.20;3.97;;;27.20;77.20;;;26.63;38.93;101667.91;5011567;28;20109;-73
2023/06/07 09:33:36;;;;;;;10.43;4.18;;;27.20;78.50;;;26.70;39.26;101658.19;5013275;28;20036;-71
2023/06/07 09:36:15;;;;;;;16.35;4.43;;;27.10;76.60;;;26.40;39.66;101666.47;5032126;28;20030;-72
2023/06/07 09:38:41;;;;;;;11.40;4.00;;;27.10;78.50;;;26.56;39.96;101659.56;5031748;28;20486;-72
2023/06/07 09:41:12;;;;;;;10.00;3.50;;;27.20;77.00;;;26.60;39.16;101660.94;5011170;28;20072;-72
2023/06/07 09:43:58;;;;;;;11.68;4.32;;;27.00;78.00;;;26.16;40.08;101647.31;5010289;28;20045;-72
2023/06/07 09:46:37;;;;;;;15.15;4.30;;;26.90;77.80;;;26.17;40.36;101654.38;5013816;28;20564;-72
2023/06/07 09:49:09;;;;;;;11.07;3.65;;;27.10;79.80;;;26.65;39.49;101658.63;5010400;28;20140;-72
2023/06/07 09:51:42;;;;;;;7.95;3.63;;;27.30;77.90;;;26.86;39.36;101665.59;5019060;28;20437;-72
2023/06/07 09:54:09;;;;;;;11.38;4.22;;;27.20;78.10;;;26.43;40.27;101659.06;5032153;28;20109;-72
2023/06/07 09:56:40;;;;;;;12.98;4.00;;;27.40;79.40;;;26.95;39.89;101659.22;4989036;28;20033;-73
2023/06/07 09:59:13;;;;;;;14.48;3.90;;;27.20;77.60;;;26.45;41.05;101655.19;4995641;28;20061;-72
2023/06/07 10:01:42;;;;;;;6.68;3.67;;;27.30;77.60;;;26.63;40.04;101666.06;5018478;28;20053;-72
2023/06/07 10:04:10;;;;;;;9.15;3.70;;;27.30;78.20;;;26.67;40.44;101666.59;4994198;28;20034;-72
2023/06/07 10:06:45;;;;;;;19.95;4.50;;;27.30;77.70;;;26.46;39.76;101659.63;5010830;28;23827;-73
2023/06/07 10:09:16;;;;;;;14.80;4.75;;;27.40;79.30;;;27.13;40.62;101668.19;5036107;28;20813;-72
2023/06/07 10:11:56;;;;;;;9.68;4.38;;;27.40;76.80;;;26.71;39.10;101670.69;5012245;28;20111;-72
2023/06/07 10:14:33;;;;;;;11.55;4.07;;;27.40;79.00;;;26.98;40.07;101670.59;5014669;28;20032;-72
2023/06/07 10:17:06;;;;;;;;;;;27.50;79.70;;;26.97;39.66;101660.78;5008717;28;20117;-73